sensor_id;sensor_type;location;lat;lon;timestamp;P1;durP1;ratioP1;P2;durP2;ratioP2
13061;SDS011;6597;52.218;9.882;2023-06-14T00:01:10;2.97;;;2.10;;
13061;SDS011;6597;52.218;9.882;2023-06-14T00:03:40;4.73;;;2.33;;
13061;SDS011;6597;52.218;9.882;2023-06-14T00:06:06;9.30;;;2.60;;
13061;SDS011;6597;52.218;9.882;2023-06-14T00:08:33;3.27;;;2.47;;
13061;SDS011;6597;52.218;9.882;2023-06-14T00:10:59;2.60;;;2.10;;
13061;SDS011;6597;52.218;9.882;2023-06-14T00:13:36;3.20;;;2.33;;
13061;SDS011;6597;52.218;9.882;2023-06-14T00:16:02;4.27;;;2.20;;
13061;SDS011;6597;52.218;9.882;2023-06-14T00:18:29;2.70;;;2.20;;
13061;SDS011;6597;52.218;9.882;2023-06-14T00:20:57;4.50;;;2.87;;
13061;SDS011;6597;52.218;9.882;2023-06-14T00:23:23;5.13;;;2.40;;
13061;SDS011;6597;52.218;9.882;2023-06-14T00:25:50;7.90;;;2.70;;
13061;SDS011;6597;52.218;9.882;2023-06-14T00:28:17;6.37;;;2.53;;
13061;SDS011;6597;52.218;9.882;2023-06-14T00:30:43;4.73;;;2.40;;
13061;SDS011;6597;52.218;9.882;2023-06-14T00:33:11;3.73;;;2.10;;
13061;SDS011;6597;52.218;9.882;2023-06-14T00:35:38;3.93;;;2.43;;
13061;SDS011;6597;52.218;9.882;2023-06-14T00:38:06;5.90;;;2.67;;
13061;SDS011;6597;52.218;9.882;2023-06-14T00:40:33;4.10;;;2.80;;
13061;SDS011;6597;52.218;9.882;2023-06-14T00:43:00;6.03;;;2.27;;
13061;SDS011;6597;52.218;9.882;2023-06-14T00:45:26;4.67;;;2.33;;
13061;SDS011;6597;52.218;9.882;2023-06-14T00:47:53;4.63;;;2.53;;
13061;SDS011;6597;52.218;9.882;2023-06-14T00:50:21;3.43;;;2.37;;
13061;SDS011;6597;52.218;9.882;2023-06-14T00:52:48;5.50;;;2.77;;
13061;SDS011;6597;52.218;9.882;2023-06-14T00:55:18;3.33;;;2.40;;
13061;SDS011;6597;52.218;9.882;2023-06-14T00:57:45;4.73;;;2.57;;
13061;SDS011;6597;52.218;9.882;2023-06-14T01:00:12;3.37;;;2.60;;
13061;SDS011;6597;52.218;9.882;2023-06-14T01:02:40;2.90;;;2.20;;
13061;SDS011;6597;52.218;9.882;2023-06-14T01:05:08;3.97;;;2.47;;
13061;SDS011;6597;52.218;9.882;2023-06-14T01:07:43;6.80;;;2.80;;
13061;SDS011;6597;52.218;9.882;2023-06-14T01:10:26;4.43;;;2.50;;
13061;SDS011;6597;52.218;9.882;2023-06-14T01:12:59;5.30;;;2.40;;
13061;SDS011;6597;52.218;9.882;2023-06-14T01:15:31;4.93;;;2.57;;
13061;SDS011;6597;52.218;9.882;2023-06-14T01:17:58;5.20;;;2.27;;
13061;SDS011;6597;52.218;9.882;2023-06-14T01:20:28;6.40;;;2.53;;
13061;SDS011;6597;52.218;9.882;2023-06-14T01:22:59;3.37;;;2.30;;
13061;SDS011;6597;52.218;9.882;2023-06-14T01:25:26;3.27;;;2.30;;
13061;SDS011;6597;52.218;9.882;2023-06-14T01:27:53;3.47;;;2.13;;
13061;SDS011;6597;52.218;9.882;2023-06-14T01:30:25;5.63;;;2.57;;
13061;SDS011;6597;52.218;9.882;2023-06-14T01:32:53;5.07;;;2.53;;
13061;SDS011;6597;52.218;9.882;2023-06-14T01:35:21;4.60;;;2.27;;
13061;SDS011;6597;52.218;9.882;2023-06-14T01:37:48;4.20;;;2.43;;
13061;SDS011;6597;52.218;9.882;2023-06-14T01:40:16;3.20;;;2.40;;
13061;SDS011;6597;52.218;9.882;2023-06-14T01:42:44;4.03;;;2.93;;
13061;SDS011;6597;52.218;9.882;2023-06-14T01:45:12;4.87;;;2.73;;
13061;SDS011;6597;52.218;9.882;2023-06-14T01:47:40;9.07;;;2.90;;
13061;SDS011;6597;52.218;9.882;2023-06-14T01:50:08;10.50;;;2.90;;
13061;SDS011;6597;52.218;9.882;2023-06-14T01:52:36;4.63;;;2.70;;
13061;SDS011;6597;52.218;9.882;2023-06-14T01:55:03;2.83;;;2.13;;
13061;SDS011;6597;52.218;9.882;2023-06-14T01:57:31;3.87;;;2.57;;
13061;SDS011;6597;52.218;9.882;2023-06-14T01:59:58;2.77;;;2.40;;
13061;SDS011;6597;52.218;9.882;2023-06-14T02:02:25;2.87;;;2.53;;
13061;SDS011;6597;52.218;9.882;2023-06-14T02:04:52;4.37;;;2.67;;
13061;SDS011;6597;52.218;9.882;2023-06-14T02:07:22;4.70;;;2.63;;
13061;SDS011;6597;52.218;9.882;2023-06-14T02:09:50;2.97;;;2.30;;
13061;SDS011;6597;52.218;9.882;2023-06-14T02:12:17;5.00;;;2.87;;
13061;SDS011;6597;52.218;9.882;2023-06-14T02:14:45;4.93;;;2.63;;
13061;SDS011;6597;52.218;9.882;2023-06-14T02:17:11;4.17;;;2.57;;
13061;SDS011;6597;52.218;9.882;2023-06-14T02:19:39;4.17;;;2.67;;
13061;SDS011;6597;52.218;9.882;2023-06-14T02:22:05;3.70;;;2.50;;
13061;SDS011;6597;52.218;9.882;2023-06-14T02:24:33;2.50;;;2.03;;
13061;SDS011;6597;52.218;9.882;2023-06-14T02:27:00;2.93;;;2.27;;
13061;SDS011;6597;52.218;9.882;2023-06-14T02:29:27;3.93;;;2.50;;
13061;SDS011;6597;52.218;9.882;2023-06-14T02:31:55;3.13;;;2.60;;
13061;SDS011;6597;52.218;9.882;2023-06-14T02:34:21;5.33;;;2.73;;
13061;SDS011;6597;52.218;9.882;2023-06-14T02:36:48;5.27;;;2.80;;
13061;SDS011;6597;52.218;9.882;2023-06-14T02:39:15;4.20;;;2.67;;
13061;SDS011;6597;52.218;9.882;2023-06-14T02:41:42;5.63;;;2.60;;
13061;SDS011;6597;52.218;9.882;2023-06-14T02:44:09;3.53;;;2.63;;
13061;SDS011;6597;52.218;9.882;2023-06-14T02:46:36;5.23;;;2.90;;
13061;SDS011;6597;52.218;9.882;2023-06-14T02:49:04;4.37;;;2.67;;
13061;SDS011;6597;52.218;9.882;2023-06-14T02:51:31;5.10;;;3.10;;
13061;SDS011;6597;52.218;9.882;2023-06-14T02:53:57;3.77;;;2.70;;
13061;SDS011;6597;52.218;9.882;2023-06-14T02:56:24;5.57;;;2.63;;
13061;SDS011;6597;52.218;9.882;2023-06-14T02:58:51;5.63;;;2.97;;
13061;SDS011;6597;52.218;9.882;2023-06-14T03:01:19;3.53;;;2.80;;
13061;SDS011;6597;52.218;9.882;2023-06-14T03:03:46;3.37;;;2.90;;
13061;SDS011;6597;52.218;9.882;2023-06-14T03:06:14;4.23;;;3.00;;
13061;SDS011;6597;52.218;9.882;2023-06-14T03:08:43;5.27;;;3.30;;
13061;SDS011;6597;52.218;9.882;2023-06-14T03:11:13;8.93;;;3.17;;
13061;SDS011;6597;52.218;9.882;2023-06-14T03:13:40;4.33;;;2.77;;
13061;SDS011;6597;52.218;9.882;2023-06-14T03:16:07;4.30;;;3.20;;
13061;SDS011;6597;52.218;9.882;2023-06-14T03:18:37;3.63;;;2.93;;
13061;SDS011;6597;52.218;9.882;2023-06-14T03:21:05;2.80;;;2.57;;
13061;SDS011;6597;52.218;9.882;2023-06-14T03:23:33;4.30;;;2.87;;
13061;SDS011;6597;52.218;9.882;2023-06-14T03:26:02;8.87;;;3.00;;
13061;SDS011;6597;52.218;9.882;2023-06-14T03:28:29;3.00;;;2.37;;
13061;SDS011;6597;52.218;9.882;2023-06-14T03:30:56;4.67;;;2.90;;
13061;SDS011;6597;52.218;9.882;2023-06-14T03:33:24;3.93;;;2.57;;
13061;SDS011;6597;52.218;9.882;2023-06-14T03:35:51;3.63;;;2.57;;
13061;SDS011;6597;52.218;9.882;2023-06-14T03:38:18;6.57;;;2.97;;
13061;SDS011;6597;52.218;9.882;2023-06-14T03:40:46;4.07;;;2.93;;
13061;SDS011;6597;52.218;9.882;2023-06-14T03:43:13;5.27;;;3.27;;
13061;SDS011;6597;52.218;9.882;2023-06-14T03:45:40;2.77;;;2.37;;
13061;SDS011;6597;52.218;9.882;2023-06-14T03:48:08;5.00;;;3.00;;
13061;SDS011;6597;52.218;9.882;2023-06-14T03:50:36;3.50;;;2.60;;
13061;SDS011;6597;52.218;9.882;2023-06-14T03:53:04;6.67;;;3.17;;
13061;SDS011;6597;52.218;9.882;2023-06-14T03:55:32;3.63;;;2.47;;
13061;SDS011;6597;52.218;9.882;2023-06-14T03:58:00;4.20;;;2.87;;
13061;SDS011;6597;52.218;9.882;2023-06-14T04:03:00;4.23;;;2.53;;
13061;SDS011;6597;52.218;9.882;2023-06-14T04:05:30;2.37;;;1.90;;
13061;SDS011;6597;52.218;9.882;2023-06-14T04:07:56;9.20;;;2.53;;
13061;SDS011;6597;52.218;9.882;2023-06-14T04:10:24;2.23;;;2.00;;
13061;SDS011;6597;52.218;9.882;2023-06-14T04:12:51;5.97;;;2.67;;
13061;SDS011;6597;52.218;9.882;2023-06-14T04:15:19;8.60;;;3.37;;
13061;SDS011;6597;52.218;9.882;2023-06-14T04:17:46;13.57;;;3.27;;
13061;SDS011;6597;52.218;9.882;2023-06-14T04:20:15;4.33;;;2.40;;
13061;SDS011;6597;52.218;9.882;2023-06-14T04:22:42;12.10;;;3.70;;
13061;SDS011;6597;52.218;9.882;2023-06-14T04:25:10;21.77;;;3.50;;
13061;SDS011;6597;52.218;9.882;2023-06-14T04:27:37;16.63;;;3.40;;
13061;SDS011;6597;52.218;9.882;2023-06-14T04:30:05;6.10;;;2.93;;
13061;SDS011;6597;52.218;9.882;2023-06-14T04:32:38;4.00;;;2.83;;
13061;SDS011;6597;52.218;9.882;2023-06-14T04:35:06;9.13;;;2.93;;
13061;SDS011;6597;52.218;9.882;2023-06-14T04:37:36;3.73;;;2.40;;
13061;SDS011;6597;52.218;9.882;2023-06-14T04:40:06;3.27;;;2.40;;
13061;SDS011;6597;52.218;9.882;2023-06-14T04:42:35;4.50;;;2.93;;
13061;SDS011;6597;52.218;9.882;2023-06-14T04:45:03;6.00;;;2.90;;
13061;SDS011;6597;52.218;9.882;2023-06-14T04:47:32;2.97;;;2.30;;
13061;SDS011;6597;52.218;9.882;2023-06-14T04:50:01;3.47;;;2.47;;
13061;SDS011;6597;52.218;9.882;2023-06-14T04:52:30;3.90;;;2.70;;
13061;SDS011;6597;52.218;9.882;2023-06-14T04:54:57;7.40;;;2.60;;
13061;SDS011;6597;52.218;9.882;2023-06-14T04:57:24;3.57;;;2.67;;
13061;SDS011;6597;52.218;9.882;2023-06-14T04:59:54;5.10;;;2.57;;
13061;SDS011;6597;52.218;9.882;2023-06-14T05:02:23;5.13;;;2.70;;
13061;SDS011;6597;52.218;9.882;2023-06-14T05:04:52;4.67;;;2.53;;
13061;SDS011;6597;52.218;9.882;2023-06-14T05:07:23;6.53;;;2.60;;
13061;SDS011;6597;52.218;9.882;2023-06-14T05:09:51;5.97;;;2.47;;
13061;SDS011;6597;52.218;9.882;2023-06-14T05:12:17;3.27;;;2.30;;
13061;SDS011;6597;52.218;9.882;2023-06-14T05:14:44;2.43;;;2.23;;
13061;SDS011;6597;52.218;9.882;2023-06-14T05:17:11;4.10;;;2.50;;
13061;SDS011;6597;52.218;9.882;2023-06-14T05:19:37;5.93;;;2.43;;
13061;SDS011;6597;52.218;9.882;2023-06-14T05:22:04;3.00;;;2.23;;
13061;SDS011;6597;52.218;9.882;2023-06-14T05:24:32;2.97;;;2.37;;
13061;SDS011;6597;52.218;9.882;2023-06-14T05:26:58;4.17;;;2.50;;
13061;SDS011;6597;52.218;9.882;2023-06-14T05:29:25;2.97;;;2.43;;
13061;SDS011;6597;52.218;9.882;2023-06-14T05:31:52;6.03;;;2.10;;
13061;SDS011;6597;52.218;9.882;2023-06-14T05:34:19;2.23;;;1.87;;
13061;SDS011;6597;52.218;9.882;2023-06-14T05:36:45;2.83;;;2.40;;
13061;SDS011;6597;52.218;9.882;2023-06-14T05:39:12;3.23;;;2.00;;
13061;SDS011;6597;52.218;9.882;2023-06-14T05:41:41;2.90;;;2.20;;
13061;SDS011;6597;52.218;9.882;2023-06-14T05:44:09;6.37;;;2.10;;
13061;SDS011;6597;52.218;9.882;2023-06-14T05:46:35;2.17;;;1.83;;
13061;SDS011;6597;52.218;9.882;2023-06-14T05:49:02;3.03;;;2.10;;
13061;SDS011;6597;52.218;9.882;2023-06-14T05:51:28;2.13;;;1.93;;
13061;SDS011;6597;52.218;9.882;2023-06-14T05:53:55;2.33;;;1.70;;
13061;SDS011;6597;52.218;9.882;2023-06-14T05:56:22;2.77;;;2.20;;
13061;SDS011;6597;52.218;9.882;2023-06-14T05:58:50;4.30;;;1.67;;
13061;SDS011;6597;52.218;9.882;2023-06-14T06:01:16;2.73;;;2.20;;
13061;SDS011;6597;52.218;9.882;2023-06-14T06:03:43;5.50;;;2.30;;
13061;SDS011;6597;52.218;9.882;2023-06-14T06:06:11;5.33;;;2.63;;
13061;SDS011;6597;52.218;9.882;2023-06-14T06:08:38;2.40;;;2.13;;
13061;SDS011;6597;52.218;9.882;2023-06-14T06:11:05;2.70;;;1.80;;
13061;SDS011;6597;52.218;9.882;2023-06-14T06:13:32;2.90;;;1.93;;
13061;SDS011;6597;52.218;9.882;2023-06-14T06:16:01;3.33;;;2.63;;
13061;SDS011;6597;52.218;9.882;2023-06-14T06:18:28;3.23;;;2.40;;
13061;SDS011;6597;52.218;9.882;2023-06-14T06:20:54;6.40;;;2.20;;
13061;SDS011;6597;52.218;9.882;2023-06-14T06:23:21;2.20;;;1.90;;
13061;SDS011;6597;52.218;9.882;2023-06-14T06:25:47;7.30;;;2.47;;
13061;SDS011;6597;52.218;9.882;2023-06-14T06:28:14;2.63;;;2.17;;
13061;SDS011;6597;52.218;9.882;2023-06-14T06:30:41;2.90;;;2.40;;
13061;SDS011;6597;52.218;9.882;2023-06-14T06:33:09;2.15;;;1.70;;
13061;SDS011;6597;52.218;9.882;2023-06-14T06:35:37;1.93;;;1.63;;
13061;SDS011;6597;52.218;9.882;2023-06-14T06:38:03;4.80;;;2.20;;
13061;SDS011;6597;52.218;9.882;2023-06-14T06:40:30;4.10;;;2.08;;
13061;SDS011;6597;52.218;9.882;2023-06-14T06:42:56;2.10;;;1.90;;
13061;SDS011;6597;52.218;9.882;2023-06-14T06:45:26;3.70;;;2.15;;
13061;SDS011;6597;52.218;9.882;2023-06-14T06:47:52;2.50;;;2.20;;
13061;SDS011;6597;52.218;9.882;2023-06-14T06:50:20;2.35;;;1.88;;
13061;SDS011;6597;52.218;9.882;2023-06-14T06:52:48;2.63;;;2.05;;
13061;SDS011;6597;52.218;9.882;2023-06-14T06:55:15;4.78;;;2.40;;
13061;SDS011;6597;52.218;9.882;2023-06-14T06:57:43;2.08;;;1.85;;
13061;SDS011;6597;52.218;9.882;2023-06-14T07:00:10;2.05;;;1.67;;
13061;SDS011;6597;52.218;9.882;2023-06-14T07:02:37;2.72;;;1.95;;
13061;SDS011;6597;52.218;9.882;2023-06-14T07:05:04;1.75;;;1.63;;
13061;SDS011;6597;52.218;9.882;2023-06-14T07:07:32;1.88;;;1.70;;
13061;SDS011;6597;52.218;9.882;2023-06-14T07:09:59;2.22;;;1.70;;
13061;SDS011;6597;52.218;9.882;2023-06-14T07:12:29;2.50;;;1.80;;
13061;SDS011;6597;52.218;9.882;2023-06-14T07:14:56;2.25;;;1.73;;
13061;SDS011;6597;52.218;9.882;2023-06-14T07:17:23;3.53;;;1.52;;
13061;SDS011;6597;52.218;9.882;2023-06-14T07:19:50;1.70;;;1.42;;
13061;SDS011;6597;52.218;9.882;2023-06-14T07:22:18;2.30;;;1.67;;
13061;SDS011;6597;52.218;9.882;2023-06-14T07:24:46;1.60;;;1.50;;
13061;SDS011;6597;52.218;9.882;2023-06-14T07:27:15;3.67;;;1.50;;
13061;SDS011;6597;52.218;9.882;2023-06-14T07:37:15;2.00;;;1.50;;
13061;SDS011;6597;52.218;9.882;2023-06-14T07:39:42;1.60;;;1.50;;
13061;SDS011;6597;52.218;9.882;2023-06-14T07:42:10;5.60;;;1.77;;
13061;SDS011;6597;52.218;9.882;2023-06-14T07:44:36;2.10;;;1.90;;
13061;SDS011;6597;52.218;9.882;2023-06-14T07:47:03;2.13;;;1.77;;
13061;SDS011;6597;52.218;9.882;2023-06-14T07:49:30;2.90;;;2.08;;
13061;SDS011;6597;52.218;9.882;2023-06-14T07:51:56;4.93;;;1.75;;
13061;SDS011;6597;52.218;9.882;2023-06-14T07:54:23;2.30;;;1.73;;
13061;SDS011;6597;52.218;9.882;2023-06-14T07:56:51;4.20;;;1.60;;
13061;SDS011;6597;52.218;9.882;2023-06-14T07:59:19;2.85;;;1.42;;
13061;SDS011;6597;52.218;9.882;2023-06-14T08:01:48;1.98;;;1.73;;
13061;SDS011;6597;52.218;9.882;2023-06-14T08:04:14;3.10;;;1.67;;
13061;SDS011;6597;52.218;9.882;2023-06-14T08:06:41;1.48;;;1.27;;
13061;SDS011;6597;52.218;9.882;2023-06-14T08:09:09;2.22;;;1.50;;
13061;SDS011;6597;52.218;9.882;2023-06-14T08:11:36;2.20;;;1.73;;
13061;SDS011;6597;52.218;9.882;2023-06-14T08:14:02;1.65;;;1.55;;
13061;SDS011;6597;52.218;9.882;2023-06-14T08:16:30;1.80;;;1.70;;
13061;SDS011;6597;52.218;9.882;2023-06-14T08:18:57;4.00;;;1.50;;
13061;SDS011;6597;52.218;9.882;2023-06-14T08:21:23;2.03;;;1.70;;
13061;SDS011;6597;52.218;9.882;2023-06-14T08:23:54;1.83;;;1.33;;
13061;SDS011;6597;52.218;9.882;2023-06-14T08:26:20;1.98;;;1.40;;
13061;SDS011;6597;52.218;9.882;2023-06-14T08:28:47;2.88;;;1.90;;
13061;SDS011;6597;52.218;9.882;2023-06-14T08:31:14;1.88;;;1.67;;
13061;SDS011;6597;52.218;9.882;2023-06-14T08:33:42;2.95;;;2.00;;
13061;SDS011;6597;52.218;9.882;2023-06-14T08:36:08;1.50;;;1.40;;
13061;SDS011;6597;52.218;9.882;2023-06-14T08:38:36;1.67;;;1.48;;
13061;SDS011;6597;52.218;9.882;2023-06-14T08:41:02;2.35;;;1.50;;
13061;SDS011;6597;52.218;9.882;2023-06-14T08:43:31;3.08;;;1.60;;
13061;SDS011;6597;52.218;9.882;2023-06-14T08:45:59;4.68;;;1.73;;
13061;SDS011;6597;52.218;9.882;2023-06-14T08:48:28;2.40;;;1.55;;
13061;SDS011;6597;52.218;9.882;2023-06-14T08:50:58;2.92;;;1.70;;
13061;SDS011;6597;52.218;9.882;2023-06-14T08:53:27;11.18;;;2.15;;
13061;SDS011;6597;52.218;9.882;2023-06-14T08:55:57;1.45;;;1.10;;
13061;SDS011;6597;52.218;9.882;2023-06-14T08:58:26;1.90;;;1.30;;
13061;SDS011;6597;52.218;9.882;2023-06-14T09:00:54;2.25;;;1.50;;
13061;SDS011;6597;52.218;9.882;2023-06-14T09:03:21;1.60;;;1.50;;
13061;SDS011;6597;52.218;9.882;2023-06-14T09:05:55;3.97;;;1.50;;
13061;SDS011;6597;52.218;9.882;2023-06-14T09:08:25;2.20;;;1.40;;
13061;SDS011;6597;52.218;9.882;2023-06-14T09:10:52;3.75;;;1.83;;
13061;SDS011;6597;52.218;9.882;2023-06-14T09:13:19;1.95;;;1.60;;
13061;SDS011;6597;52.218;9.882;2023-06-14T09:15:45;1.38;;;1.27;;
13061;SDS011;6597;52.218;9.882;2023-06-14T09:18:12;2.13;;;1.63;;
13061;SDS011;6597;52.218;9.882;2023-06-14T09:20:38;3.15;;;1.58;;
13061;SDS011;6597;52.218;9.882;2023-06-14T09:23:06;2.45;;;1.45;;
13061;SDS011;6597;52.218;9.882;2023-06-14T09:25:37;2.85;;;1.60;;
13061;SDS011;6597;52.218;9.882;2023-06-14T09:28:09;1.33;;;1.20;;
13061;SDS011;6597;52.218;9.882;2023-06-14T09:30:36;1.52;;;1.30;;
13061;SDS011;6597;52.218;9.882;2023-06-14T09:33:02;1.58;;;1.40;;
13061;SDS011;6597;52.218;9.882;2023-06-14T09:35:30;2.38;;;1.40;;
13061;SDS011;6597;52.218;9.882;2023-06-14T09:37:57;4.55;;;1.70;;
13061;SDS011;6597;52.218;9.882;2023-06-14T09:40:24;2.40;;;1.75;;
13061;SDS011;6597;52.218;9.882;2023-06-14T09:42:52;2.80;;;1.30;;
13061;SDS011;6597;52.218;9.882;2023-06-14T09:45:20;2.88;;;1.60;;
13061;SDS011;6597;52.218;9.882;2023-06-14T09:47:48;2.30;;;1.60;;
13061;SDS011;6597;52.218;9.882;2023-06-14T09:50:15;1.90;;;1.38;;
13061;SDS011;6597;52.218;9.882;2023-06-14T09:52:42;1.55;;;1.40;;
13061;SDS011;6597;52.218;9.882;2023-06-14T09:55:11;5.75;;;1.45;;
13061;SDS011;6597;52.218;9.882;2023-06-14T09:57:40;2.13;;;1.40;;
13061;SDS011;6597;52.218;9.882;2023-06-14T10:00:10;2.17;;;1.65;;
13061;SDS011;6597;52.218;9.882;2023-06-14T10:02:40;1.63;;;1.52;;
13061;SDS011;6597;52.218;9.882;2023-06-14T10:05:12;5.72;;;1.80;;
13061;SDS011;6597;52.218;9.882;2023-06-14T10:07:42;4.20;;;1.77;;
13061;SDS011;6597;52.218;9.882;2023-06-14T10:10:14;1.75;;;1.50;;
13061;SDS011;6597;52.218;9.882;2023-06-14T10:12:41;2.22;;;1.80;;
13061;SDS011;6597;52.218;9.882;2023-06-14T10:15:08;2.78;;;1.75;;
13061;SDS011;6597;52.218;9.882;2023-06-14T10:17:44;2.13;;;1.83;;
13061;SDS011;6597;52.218;9.882;2023-06-14T10:20:17;1.90;;;1.70;;
13061;SDS011;6597;52.218;9.882;2023-06-14T10:22:50;2.20;;;2.00;;
13061;SDS011;6597;52.218;9.882;2023-06-14T10:25:26;2.08;;;1.63;;
13061;SDS011;6597;52.218;9.882;2023-06-14T10:28:00;2.00;;;1.55;;
13061;SDS011;6597;52.218;9.882;2023-06-14T10:30:30;2.38;;;1.67;;
13061;SDS011;6597;52.218;9.882;2023-06-14T10:33:05;4.53;;;1.67;;
13061;SDS011;6597;52.218;9.882;2023-06-14T10:35:32;1.85;;;1.50;;
13061;SDS011;6597;52.218;9.882;2023-06-14T10:38:06;2.15;;;1.70;;
13061;SDS011;6597;52.218;9.882;2023-06-14T10:40:34;2.38;;;1.67;;
13061;SDS011;6597;52.218;9.882;2023-06-14T10:43:01;5.35;;;1.88;;
13061;SDS011;6597;52.218;9.882;2023-06-14T10:48:40;1.90;;;1.70;;
13061;SDS011;6597;52.218;9.882;2023-06-14T10:51:07;2.00;;;1.80;;
13061;SDS011;6597;52.218;9.882;2023-06-14T10:53:45;3.03;;;1.85;;
13061;SDS011;6597;52.218;9.882;2023-06-14T10:56:22;2.50;;;1.75;;
13061;SDS011;6597;52.218;9.882;2023-06-14T10:58:51;2.85;;;1.80;;
13061;SDS011;6597;52.218;9.882;2023-06-14T11:01:19;4.43;;;1.98;;
13061;SDS011;6597;52.218;9.882;2023-06-14T11:03:57;3.38;;;2.00;;
13061;SDS011;6597;52.218;9.882;2023-06-14T11:06:45;2.30;;;1.73;;
13061;SDS011;6597;52.218;9.882;2023-06-14T11:12:22;2.50;;;1.83;;
13061;SDS011;6597;52.218;9.882;2023-06-14T11:14:51;2.20;;;1.83;;
13061;SDS011;6597;52.218;9.882;2023-06-14T11:17:19;2.40;;;1.85;;
13061;SDS011;6597;52.218;9.882;2023-06-14T11:19:46;6.20;;;1.63;;
13061;SDS011;6597;52.218;9.882;2023-06-14T11:22:12;2.08;;;1.67;;
13061;SDS011;6597;52.218;9.882;2023-06-14T11:24:42;3.03;;;2.00;;
13061;SDS011;6597;52.218;9.882;2023-06-14T11:27:09;3.45;;;1.95;;
13061;SDS011;6597;52.218;9.882;2023-06-14T11:29:36;2.67;;;2.03;;
13061;SDS011;6597;52.218;9.882;2023-06-14T11:32:06;4.38;;;2.05;;
13061;SDS011;6597;52.218;9.882;2023-06-14T11:34:38;3.47;;;2.47;;
13061;SDS011;6597;52.218;9.882;2023-06-14T11:37:05;5.50;;;2.25;;
13061;SDS011;6597;52.218;9.882;2023-06-14T11:39:31;3.00;;;1.90;;
13061;SDS011;6597;52.218;9.882;2023-06-14T11:41:58;3.05;;;2.17;;
13061;SDS011;6597;52.218;9.882;2023-06-14T11:44:26;4.63;;;1.90;;
13061;SDS011;6597;52.218;9.882;2023-06-14T11:46:53;2.38;;;2.00;;
13061;SDS011;6597;52.218;9.882;2023-06-14T11:49:21;2.70;;;1.90;;
13061;SDS011;6597;52.218;9.882;2023-06-14T11:51:49;2.55;;;1.73;;
13061;SDS011;6597;52.218;9.882;2023-06-14T11:54:16;2.28;;;2.03;;
13061;SDS011;6597;52.218;9.882;2023-06-14T11:56:42;3.30;;;2.10;;
13061;SDS011;6597;52.218;9.882;2023-06-14T11:59:09;2.92;;;2.20;;
13061;SDS011;6597;52.218;9.882;2023-06-14T12:01:36;3.38;;;2.20;;
13061;SDS011;6597;52.218;9.882;2023-06-14T12:04:04;2.95;;;1.80;;
13061;SDS011;6597;52.218;9.882;2023-06-14T12:06:31;2.22;;;2.03;;
13061;SDS011;6597;52.218;9.882;2023-06-14T12:09:06;3.42;;;1.90;;
13061;SDS011;6597;52.218;9.882;2023-06-14T12:11:37;7.15;;;1.70;;
13061;SDS011;6597;52.218;9.882;2023-06-14T12:14:04;2.78;;;2.10;;
13061;SDS011;6597;52.218;9.882;2023-06-14T12:16:31;5.57;;;1.88;;
13061;SDS011;6597;52.218;9.882;2023-06-14T12:19:09;3.58;;;1.77;;
13061;SDS011;6597;52.218;9.882;2023-06-14T12:21:39;6.15;;;2.22;;
13061;SDS011;6597;52.218;9.882;2023-06-14T12:24:09;2.88;;;1.85;;
13061;SDS011;6597;52.218;9.882;2023-06-14T12:26:37;2.00;;;1.77;;
13061;SDS011;6597;52.218;9.882;2023-06-14T12:29:05;4.00;;;2.20;;
13061;SDS011;6597;52.218;9.882;2023-06-14T12:31:31;3.25;;;2.15;;
13061;SDS011;6597;52.218;9.882;2023-06-14T12:33:58;2.67;;;2.22;;
13061;SDS011;6597;52.218;9.882;2023-06-14T12:36:24;5.63;;;2.10;;
13061;SDS011;6597;52.218;9.882;2023-06-14T12:38:52;2.40;;;2.20;;
13061;SDS011;6597;52.218;9.882;2023-06-14T12:41:20;6.50;;;2.42;;
13061;SDS011;6597;52.218;9.882;2023-06-14T12:43:47;4.82;;;2.70;;
13061;SDS011;6597;52.218;9.882;2023-06-14T12:46:14;4.97;;;3.30;;
13061;SDS011;6597;52.218;9.882;2023-06-14T12:48:40;6.05;;;3.47;;
13061;SDS011;6597;52.218;9.882;2023-06-14T12:51:07;4.80;;;2.67;;
13061;SDS011;6597;52.218;9.882;2023-06-14T12:53:33;4.75;;;2.22;;
13061;SDS011;6597;52.218;9.882;2023-06-14T12:56:00;3.22;;;2.40;;
13061;SDS011;6597;52.218;9.882;2023-06-14T12:58:28;4.25;;;2.67;;
13061;SDS011;6597;52.218;9.882;2023-06-14T13:00:54;7.32;;;2.92;;
13061;SDS011;6597;52.218;9.882;2023-06-14T13:03:21;7.38;;;2.63;;
13061;SDS011;6597;52.218;9.882;2023-06-14T13:05:47;7.95;;;2.63;;
13061;SDS011;6597;52.218;9.882;2023-06-14T13:08:15;4.93;;;2.92;;
13061;SDS011;6597;52.218;9.882;2023-06-14T13:10:41;11.15;;;2.97;;
13061;SDS011;6597;52.218;9.882;2023-06-14T13:13:08;9.45;;;3.05;;
13061;SDS011;6597;52.218;9.882;2023-06-14T13:15:38;4.43;;;2.60;;
13061;SDS011;6597;52.218;9.882;2023-06-14T13:18:05;6.38;;;2.97;;
13061;SDS011;6597;52.218;9.882;2023-06-14T13:20:32;5.43;;;3.03;;
13061;SDS011;6597;52.218;9.882;2023-06-14T13:22:59;5.45;;;2.97;;
13061;SDS011;6597;52.218;9.882;2023-06-14T13:25:27;8.38;;;2.95;;
13061;SDS011;6597;52.218;9.882;2023-06-14T13:27:53;3.38;;;2.70;;
13061;SDS011;6597;52.218;9.882;2023-06-14T13:30:20;2.42;;;2.17;;
13061;SDS011;6597;52.218;9.882;2023-06-14T13:32:48;5.72;;;2.67;;
13061;SDS011;6597;52.218;9.882;2023-06-14T13:35:17;5.78;;;2.20;;
13061;SDS011;6597;52.218;9.882;2023-06-14T13:37:43;6.60;;;2.40;;
13061;SDS011;6597;52.218;9.882;2023-06-14T13:40:11;8.10;;;2.70;;
13061;SDS011;6597;52.218;9.882;2023-06-14T13:42:38;5.18;;;3.03;;
13061;SDS011;6597;52.218;9.882;2023-06-14T13:45:05;3.08;;;2.28;;
13061;SDS011;6597;52.218;9.882;2023-06-14T13:47:32;6.85;;;2.92;;
13061;SDS011;6597;52.218;9.882;2023-06-14T13:50:01;3.38;;;2.60;;
13061;SDS011;6597;52.218;9.882;2023-06-14T13:52:28;6.43;;;2.70;;
13061;SDS011;6597;52.218;9.882;2023-06-14T13:54:54;6.60;;;2.70;;
13061;SDS011;6597;52.218;9.882;2023-06-14T13:57:21;7.30;;;2.90;;
13061;SDS011;6597;52.218;9.882;2023-06-14T13:59:47;3.28;;;2.60;;
13061;SDS011;6597;52.218;9.882;2023-06-14T14:02:14;4.10;;;2.72;;
13061;SDS011;6597;52.218;9.882;2023-06-14T14:04:41;3.50;;;2.42;;
13061;SDS011;6597;52.218;9.882;2023-06-14T14:07:09;4.75;;;2.80;;
13061;SDS011;6597;52.218;9.882;2023-06-14T14:09:35;3.17;;;2.22;;
13061;SDS011;6597;52.218;9.882;2023-06-14T14:12:04;2.85;;;2.33;;
13061;SDS011;6597;52.218;9.882;2023-06-14T14:14:32;4.65;;;2.53;;
13061;SDS011;6597;52.218;9.882;2023-06-14T14:16:59;5.03;;;3.00;;
13061;SDS011;6597;52.218;9.882;2023-06-14T14:19:25;5.55;;;2.25;;
13061;SDS011;6597;52.218;9.882;2023-06-14T14:21:51;3.95;;;2.70;;
13061;SDS011;6597;52.218;9.882;2023-06-14T14:24:20;8.18;;;2.30;;
13061;SDS011;6597;52.218;9.882;2023-06-14T14:26:46;3.00;;;2.13;;
13061;SDS011;6597;52.218;9.882;2023-06-14T14:29:14;2.85;;;2.28;;
13061;SDS011;6597;52.218;9.882;2023-06-14T14:31:42;3.40;;;2.65;;
13061;SDS011;6597;52.218;9.882;2023-06-14T14:34:08;3.90;;;2.38;;
13061;SDS011;6597;52.218;9.882;2023-06-14T14:36:35;6.70;;;2.80;;
13061;SDS011;6597;52.218;9.882;2023-06-14T14:39:02;3.33;;;2.53;;
13061;SDS011;6597;52.218;9.882;2023-06-14T14:41:31;5.13;;;2.60;;
13061;SDS011;6597;52.218;9.882;2023-06-14T14:43:57;4.88;;;2.60;;
13061;SDS011;6597;52.218;9.882;2023-06-14T14:46:25;7.72;;;2.65;;
13061;SDS011;6597;52.218;9.882;2023-06-14T14:48:53;5.75;;;2.45;;
13061;SDS011;6597;52.218;9.882;2023-06-14T14:51:20;3.40;;;2.38;;
13061;SDS011;6597;52.218;9.882;2023-06-14T14:53:46;4.95;;;2.67;;
13061;SDS011;6597;52.218;9.882;2023-06-14T14:56:13;6.80;;;2.80;;
13061;SDS011;6597;52.218;9.882;2023-06-14T14:58:41;3.40;;;2.53;;
13061;SDS011;6597;52.218;9.882;2023-06-14T15:01:07;3.10;;;2.22;;
13061;SDS011;6597;52.218;9.882;2023-06-14T15:03:34;6.13;;;2.88;;
13061;SDS011;6597;52.218;9.882;2023-06-14T15:06:00;3.30;;;2.38;;
13061;SDS011;6597;52.218;9.882;2023-06-14T15:08:27;7.88;;;2.55;;
13061;SDS011;6597;52.218;9.882;2023-06-14T15:10:53;5.45;;;2.30;;
13061;SDS011;6597;52.218;9.882;2023-06-14T15:13:20;4.47;;;2.85;;
13061;SDS011;6597;52.218;9.882;2023-06-14T15:15:49;8.48;;;2.50;;
13061;SDS011;6597;52.218;9.882;2023-06-14T15:18:16;3.35;;;2.30;;
13061;SDS011;6597;52.218;9.882;2023-06-14T15:20:45;3.92;;;2.53;;